Rodney, IA (51051)

6:22 AM CDT on August 30, 2016 (GMT -0500)
The Danbury Review | | Change Station

Elev 1162 ft 42.24 °N, 95.72 °W | Updated 2 minutes ago

Mostly Cloudy
Mostly Cloudy
66.1 °F
Feels Like 66.1 °F
N
0.0
Wind Variable Wind from North
Gusts 0.0 mph

Today
High -- | Low -- °F
--% Chance of Precip.
Yesterday
High -- | Low -- °F
Precip. -- in
Pressure 30.17 in
Visibility 7.0 miles
Clouds Mostly Cloudy 12000 ft
Dew Point 64 °F
Humidity 94%
Rainfall 0.00 in
Snow Depth Not available.
6:47 AM 8:00 PM
Waning Crescent, 4% visible
METAR KSUX 301052Z 11003KT 7SM BKN120 21/19 A3018 RMK AO2 RAB02E27 SLP214 P0000 T02060189
Pressure 30.17 in
Visibility 7.0 miles
Clouds Mostly Cloudy 12000 ft
Dew Point 64 °F
Humidity 94%
Rainfall 0.00 in
Snow Depth Not available.
6:47 AM 8:00 PM
Waning Crescent, 4% visible
METAR KSUX 301052Z 11003KT 7SM BKN120 21/19 A3018 RMK AO2 RAB02E27 SLP214 P0000 T02060189

10-Day Weather Forecast

Almanac

Astronomy

Aug. 30, 2016 Rise Set
Actual Time
Civil Twilight
Nautical Twilight
Astronomical Twilight
Moon
Length of Visible Light
Length of Day
Tomorrow will be .
, % of the Moon is Illuminated

Today's Extremes

State Highs State Lows

Community

WunderPhotos

Upload Photos

1,935,804 photos uploaded!

WunderBlog® & News

Nearby

Air Quality

  Air Quality AQ Index Pollutant
Not available.

Snow Depth

Station Depth Elevation

Earthquake Activity

City Distance Mag. Time & Date
Minimum magnitude displayed is 2.5.

Coastal Water Temperatures

Place Temperature

Stations

Nearby Weather Stations

Station Location Temp. Windchill Dew Point Humidity Wind Precip. Elev Updated Type
                   

Watches & Warnings

There are currently no watches in effect.